createdAt,value
2016-12-09T00:01:52.990Z,22.4
2016-12-09T00:06:57.413Z,22.4
2016-12-09T00:12:01.832Z,22.4
2016-12-09T00:17:05.921Z,22.4
2016-12-09T00:22:10.001Z,22.4
2016-12-09T00:27:14.078Z,22.4
2016-12-09T00:32:18.163Z,22.4
2016-12-09T00:37:22.253Z,22.4
2016-12-09T00:42:26.671Z,22.5
2016-12-09T00:47:30.751Z,22.5
2016-12-09T00:52:34.840Z,22.6
2016-12-09T00:57:39.260Z,22.6
2016-12-09T01:02:43.348Z,22.6
2016-12-09T01:07:48.101Z,22.7
2016-12-09T01:12:52.519Z,22.7
2016-12-09T01:17:56.938Z,22.7
2016-12-09T01:23:01.705Z,22.7
2016-12-09T01:28:06.129Z,22.7
2016-12-09T01:33:10.552Z,22.7
2016-12-09T01:38:15.310Z,22.7
2016-12-09T01:43:19.397Z,22.7
2016-12-09T01:48:23.812Z,22.7
2016-12-09T01:53:27.897Z,22.7
2016-12-09T01:58:32.652Z,22.7
2016-12-09T02:03:37.409Z,22.7
2016-12-09T02:08:41.834Z,22.7
2016-12-09T02:13:45.918Z,22.7
2016-12-09T02:18:50.005Z,22.7
2016-12-09T02:23:54.096Z,22.7
2016-12-09T02:28:58.178Z,22.7
2016-12-09T02:34:02.602Z,22.7
2016-12-09T02:39:06.695Z,22.7
2016-12-09T02:44:11.448Z,22.7
2016-12-09T02:49:15.544Z,22.7
2016-12-09T02:54:19.629Z,22.7
2016-12-09T02:59:23.717Z,22.7
2016-12-09T03:04:27.818Z,22.7
2016-12-09T03:09:31.893Z,22.7
2016-12-09T03:14:36.311Z,22.7
2016-12-09T03:19:41.412Z,22.7
2016-12-09T03:24:46.172Z,22.7
2016-12-09T03:29:50.592Z,22.7
2016-12-09T03:34:54.686Z,22.7
2016-12-09T03:39:58.776Z,22.7
2016-12-09T03:45:02.861Z,22.7
2016-12-09T03:50:06.951Z,22.7
2016-12-09T03:55:11.378Z,22.7
2016-12-09T04:00:15.467Z,22.7
2016-12-09T04:05:19.561Z,22.7
2016-12-09T04:10:23.981Z,22.7
2016-12-09T04:15:28.739Z,22.8
2016-12-09T04:20:33.158Z,22.8
2016-12-09T04:25:37.245Z,22.8
2016-12-09T04:30:41.334Z,22.8
2016-12-09T04:35:45.425Z,22.8
2016-12-09T04:40:49.508Z,22.8
2016-12-09T04:45:54.266Z,22.8
2016-12-09T04:50:58.357Z,22.9
2016-12-09T04:56:03.104Z,22.9
2016-12-09T05:01:07.198Z,22.9
2016-12-09T05:06:11.287Z,22.9
2016-12-09T05:11:15.730Z,23
2016-12-09T05:16:20.160Z,23
2016-12-09T05:21:24.576Z,23
2016-12-09T05:26:28.666Z,23
2016-12-09T05:31:32.774Z,23
2016-12-09T05:36:36.865Z,23
2016-12-09T05:41:40.971Z,23
2016-12-09T05:46:45.067Z,23
2016-12-09T05:51:49.166Z,23
2016-12-09T05:56:53.245Z,23
2016-12-09T06:01:58.003Z,23
2016-12-09T06:07:02.100Z,23.1
2016-12-09T06:12:06.188Z,23.1
2016-12-09T06:17:10.604Z,23.1
2016-12-09T06:22:14.696Z,23.1
2016-12-09T06:27:18.786Z,23.1
2016-12-09T06:32:22.878Z,23.1
2016-12-09T06:37:27.303Z,23.1
2016-12-09T06:42:31.719Z,23.1
2016-12-09T06:47:35.817Z,23.1
2016-12-09T06:52:40.245Z,23
2016-12-09T06:57:44.334Z,23
2016-12-09T07:02:48.423Z,23
2016-12-09T07:07:52.864Z,22.9
2016-12-09T07:12:57.286Z,22.9
2016-12-09T07:18:01.369Z,22.9
2016-12-09T07:23:05.454Z,22.9
2016-12-09T07:28:09.536Z,22.9
2016-12-09T07:33:13.962Z,22.9
2016-12-09T07:38:18.379Z,22.8
2016-12-09T07:43:22.463Z,22.8
2016-12-09T07:48:26.544Z,22.7
2016-12-09T07:53:31.300Z,22.6
2016-12-09T07:58:35.715Z,22.4
2016-12-09T08:03:40.139Z,22.2
2016-12-09T08:08:44.571Z,22.1
2016-12-09T08:13:48.988Z,22
2016-12-09T08:18:53.080Z,21.9
2016-12-09T08:23:57.499Z,22
2016-12-09T08:29:01.926Z,22.1
2016-12-09T08:34:06.021Z,22.2
2016-12-09T08:39:10.102Z,22.3
2016-12-09T08:44:14.863Z,22.4
2016-12-09T08:49:18.953Z,22.5
2016-12-09T08:54:23.040Z,22.5
2016-12-09T08:59:27.467Z,22.6
2016-12-09T09:04:31.567Z,22.6
2016-12-09T09:09:35.988Z,22.6
2016-12-09T09:14:40.080Z,22.7
2016-12-09T09:19:44.173Z,22.7
2016-12-09T09:24:48.268Z,22.7
2016-12-09T09:29:52.354Z,22.8
2016-12-09T09:34:56.447Z,22.9
2016-12-09T09:40:00.871Z,23
2016-12-09T09:45:05.639Z,23
2016-12-09T09:50:10.398Z,23.1
2016-12-09T09:55:15.161Z,23.1
2016-12-09T10:00:19.250Z,23.1
2016-12-09T10:05:23.341Z,23.1
2016-12-09T10:10:27.425Z,23.1
2016-12-09T10:15:31.862Z,23.1
2016-12-09T10:20:35.955Z,23.1
2016-12-09T10:25:40.042Z,23.1
2016-12-09T10:30:44.809Z,23.1
2016-12-09T10:35:49.569Z,23.1
2016-12-09T10:40:54.329Z,23.1
2016-12-09T10:45:58.755Z,23.1
2016-12-09T10:51:02.851Z,23.1
2016-12-09T10:56:07.669Z,23.1
2016-12-09T11:01:12.447Z,23.1
2016-12-09T11:06:16.865Z,23.1
2016-12-09T11:11:21.292Z,23.1
2016-12-09T11:16:25.379Z,23.1
2016-12-09T11:21:29.473Z,23
2016-12-09T11:26:33.571Z,23
2016-12-09T11:31:37.670Z,23
2016-12-09T11:36:41.760Z,23
2016-12-09T11:41:45.847Z,23
2016-12-09T11:46:49.936Z,23
2016-12-09T11:51:54.365Z,23
2016-12-09T11:56:59.120Z,23
2016-12-09T12:02:03.209Z,23
2016-12-09T12:07:07.291Z,23
2016-12-09T12:12:11.378Z,23
2016-12-09T12:17:16.134Z,23
2016-12-09T12:22:20.560Z,23
2016-12-09T12:27:24.982Z,23
2016-12-09T12:32:29.072Z,23
2016-12-09T12:37:33.503Z,23
2016-12-09T12:42:37.928Z,23
2016-12-09T12:47:42.019Z,23
2016-12-09T12:52:46.105Z,23
2016-12-09T12:57:50.192Z,23
2016-12-09T13:02:54.621Z,23
2016-12-09T13:07:58.713Z,23
2016-12-09T13:13:03.146Z,23
2016-12-09T13:18:07.918Z,23
2016-12-09T13:23:12.363Z,23.1
2016-12-09T13:28:16.448Z,23.1
2016-12-09T13:33:20.548Z,23.1
2016-12-09T13:38:39.556Z,23.2
2016-12-09T13:43:43.666Z,23.2
2016-12-09T13:48:48.431Z,23.2
2016-12-09T13:53:52.528Z,23.3
2016-12-09T13:58:56.957Z,23.3
2016-12-09T14:04:01.395Z,23.3
2016-12-09T14:09:05.830Z,23.3
2016-12-09T14:14:09.927Z,23.2
2016-12-09T14:19:14.038Z,23.2
2016-12-09T14:24:18.482Z,23.2
2016-12-09T14:29:22.584Z,23.2
2016-12-09T14:34:26.683Z,23.2
2016-12-09T14:39:31.120Z,23.2
2016-12-09T14:44:35.542Z,23.2
2016-12-09T14:49:39.631Z,23.2
2016-12-09T14:54:44.057Z,23.2
2016-12-09T14:59:48.497Z,23.2
2016-12-09T15:04:52.603Z,23.2
2016-12-09T15:09:57.051Z,23.2
2016-12-09T15:15:01.152Z,23.2
2016-12-09T15:20:05.578Z,23.2
2016-12-09T15:25:09.667Z,23.2
2016-12-09T15:30:13.752Z,23.2
2016-12-09T15:35:18.519Z,23.2
2016-12-09T15:40:22.611Z,23.2
2016-12-09T15:45:27.034Z,23.2
2016-12-09T15:50:31.130Z,23.2
2016-12-09T15:55:35.223Z,23.2
2016-12-09T16:00:39.342Z,23.2
